createdAt,value
2018-09-02T00:02:14.700Z,15.12
2018-09-02T00:04:44.408Z,14.98
2018-09-02T00:07:14.124Z,14.96
2018-09-02T00:09:43.796Z,15.04
2018-09-02T00:12:13.475Z,14.91
2018-09-02T00:14:43.177Z,14.85
2018-09-02T00:17:12.842Z,14.68
2018-09-02T00:19:42.488Z,14.67
2018-09-02T00:22:12.192Z,14.76
2018-09-02T00:24:41.864Z,14.78
2018-09-02T00:27:11.551Z,14.63
2018-09-02T00:29:41.273Z,14.53
2018-09-02T00:32:10.933Z,14.63
2018-09-02T00:34:40.645Z,14.44
2018-09-02T00:37:10.292Z,14.47
2018-09-02T00:39:39.948Z,14.47
2018-09-02T00:42:09.625Z,14.49
2018-09-02T00:44:39.313Z,14.52
2018-09-02T00:47:08.987Z,14.44
2018-09-02T00:49:38.716Z,14.50
2018-09-02T00:52:08.382Z,14.46
2018-09-02T00:54:38.096Z,14.48
2018-09-02T00:57:07.788Z,14.44
2018-09-02T00:59:37.540Z,14.21
2018-09-02T01:02:07.542Z,13.93
2018-09-02T01:04:37.249Z,13.80
2018-09-02T01:07:07.531Z,13.71
2018-09-02T01:09:37.173Z,13.91
2018-09-02T01:12:06.907Z,14.08
2018-09-02T01:14:36.593Z,14.08
2018-09-02T01:17:06.482Z,14.04
2018-09-02T01:19:36.168Z,13.93
2018-09-02T01:22:08.812Z,14.03
2018-09-02T01:24:38.477Z,13.92
2018-09-02T01:27:08.122Z,14.02
2018-09-02T01:29:37.832Z,14.09
2018-09-02T01:32:07.478Z,14.09
2018-09-02T01:34:37.198Z,14.12
2018-09-02T01:37:06.848Z,14.20
2018-09-02T01:39:36.510Z,14.12
2018-09-02T01:42:06.400Z,14.04
2018-09-02T01:44:36.052Z,13.89
2018-09-02T01:47:05.783Z,13.97
2018-09-02T01:49:35.448Z,13.98
2018-09-02T01:52:05.364Z,13.94
2018-09-02T01:54:35.033Z,13.93
2018-09-02T01:57:04.672Z,13.96
2018-09-02T01:59:34.369Z,13.80
2018-09-02T02:02:04.104Z,13.51
2018-09-02T02:04:38.951Z,13.36
2018-09-02T02:07:08.664Z,13.48
2018-09-02T02:09:38.384Z,13.52
2018-09-02T02:12:08.040Z,13.58
2018-09-02T02:14:37.716Z,13.58
2018-09-02T02:17:07.464Z,13.69
2018-09-02T02:19:37.220Z,13.57
2018-09-02T02:22:06.938Z,13.56
2018-09-02T02:24:36.588Z,13.45
2018-09-02T02:27:06.312Z,13.28
2018-09-02T02:29:36.073Z,13.40
2018-09-02T02:32:05.807Z,13.50
2018-09-02T02:34:35.567Z,13.45
2018-09-02T02:37:05.568Z,13.37
2018-09-02T02:39:35.241Z,13.37
2018-09-02T02:42:04.899Z,13.44
2018-09-02T02:44:34.667Z,13.33
2018-09-02T02:47:04.323Z,13.28
2018-09-02T02:49:34.052Z,13.25
2018-09-02T02:52:03.764Z,13.29
2018-09-02T02:54:33.420Z,13.48
2018-09-02T02:57:03.108Z,13.64
2018-09-02T02:59:32.766Z,13.56
2018-09-02T03:02:02.533Z,13.46
2018-09-02T03:04:32.252Z,13.43
2018-09-02T03:07:01.921Z,13.37
2018-09-02T03:09:31.564Z,13.30
2018-09-02T03:12:01.244Z,13.20
2018-09-02T03:14:30.913Z,13.21
2018-09-02T03:17:00.588Z,13.16
2018-09-02T03:19:30.260Z,13.09
2018-09-02T03:21:59.936Z,12.93
2018-09-02T03:24:29.576Z,13.06
2018-09-02T03:26:59.292Z,12.94
2018-09-02T03:29:28.928Z,12.87
2018-09-02T03:31:58.577Z,12.85
2018-09-02T03:34:28.265Z,12.88
2018-09-02T03:36:57.912Z,12.81
2018-09-02T03:39:27.612Z,12.77
2018-09-02T03:41:57.279Z,12.77
2018-09-02T03:44:27.029Z,12.72
2018-09-02T03:46:56.709Z,12.63
2018-09-02T03:49:26.369Z,12.53
2018-09-02T03:51:56.031Z,12.69
2018-09-02T03:54:25.712Z,12.57
2018-09-02T03:56:55.392Z,12.50
2018-09-02T03:59:25.489Z,12.44
2018-09-02T04:01:55.195Z,12.48
2018-09-02T04:04:25.847Z,12.34
2018-09-02T04:06:55.593Z,12.37
2018-09-02T04:09:25.288Z,12.53
2018-09-02T04:11:54.936Z,12.65
2018-09-02T04:14:24.568Z,12.63
2018-09-02T04:16:54.260Z,12.62
2018-09-02T04:19:23.951Z,12.43
2018-09-02T04:21:53.609Z,12.36
2018-09-02T04:24:23.340Z,12.49
2018-09-02T04:26:52.989Z,12.52
2018-09-02T04:29:22.620Z,12.49
2018-09-02T04:31:52.291Z,12.37
2018-09-02T04:34:22.012Z,12.29
2018-09-02T04:36:51.685Z,12.12
2018-09-02T04:39:21.370Z,12.07
2018-09-02T04:41:51.098Z,11.98
2018-09-02T04:44:20.801Z,11.96
2018-09-02T04:46:50.500Z,12.09
2018-09-02T04:49:20.153Z,12.34
2018-09-02T04:51:49.836Z,12.28
2018-09-02T04:54:19.510Z,12.14
2018-09-02T04:56:49.238Z,12.12
2018-09-02T04:59:18.908Z,12.16
2018-09-02T05:01:48.640Z,12.07
2018-09-02T05:04:18.333Z,12.12
2018-09-02T05:06:47.990Z,12.10
2018-09-02T05:09:17.695Z,12.09
2018-09-02T05:11:47.348Z,12.17
2018-09-02T05:14:17.092Z,12.22
2018-09-02T05:16:46.713Z,12.30
2018-09-02T05:19:16.367Z,12.38
2018-09-02T05:21:46.068Z,12.40
2018-09-02T05:24:15.789Z,12.33
2018-09-02T05:26:45.473Z,12.49
2018-09-02T05:29:15.140Z,12.58
2018-09-02T05:31:44.794Z,12.51
2018-09-02T05:34:14.495Z,12.39
2018-09-02T05:36:44.152Z,12.39
2018-09-02T05:39:13.859Z,12.60
2018-09-02T05:41:43.517Z,12.66
2018-09-02T05:44:13.209Z,12.68
2018-09-02T05:46:42.880Z,12.73
2018-09-02T05:49:12.533Z,12.91
2018-09-02T05:51:42.240Z,13.13
2018-09-02T05:54:11.889Z,13.31
2018-09-02T05:56:41.557Z,13.29
2018-09-02T05:59:11.232Z,13.22
2018-09-02T06:01:40.884Z,13.21
2018-09-02T06:04:10.636Z,13.23
2018-09-02T06:06:40.300Z,13.43
2018-09-02T06:09:10.262Z,13.60
2018-09-02T06:11:39.952Z,13.77
2018-09-02T06:14:09.679Z,13.72
2018-09-02T06:16:39.401Z,13.59
2018-09-02T06:19:09.080Z,13.89
2018-09-02T06:21:38.725Z,14.12
2018-09-02T06:24:08.400Z,14.24
2018-09-02T06:26:38.056Z,14.35
2018-09-02T06:29:07.729Z,14.39
2018-09-02T06:31:37.416Z,14.51
2018-09-02T06:34:07.089Z,14.61
2018-09-02T06:36:36.750Z,14.65
2018-09-02T06:39:09.351Z,14.73
2018-09-02T06:41:39.024Z,14.80
2018-09-02T06:44:08.970Z,14.92
2018-09-02T06:46:38.592Z,15.00
2018-09-02T06:49:08.280Z,15.12
2018-09-02T06:51:37.946Z,15.17
2018-09-02T06:54:07.604Z,15.13
2018-09-02T06:56:37.340Z,15.19
2018-09-02T06:59:07.009Z,15.50
2018-09-02T07:01:36.712Z,15.58
2018-09-02T07:04:06.364Z,15.78
2018-09-02T07:06:36.100Z,15.94
2018-09-02T07:09:06.440Z,16.08
2018-09-02T07:11:36.143Z,16.21
2018-09-02T07:14:05.860Z,16.32
2018-09-02T07:16:35.512Z,16.41
2018-09-02T07:19:05.216Z,16.45
2018-09-02T07:21:34.914Z,16.50
2018-09-02T07:24:04.600Z,16.55
2018-09-02T07:26:34.288Z,16.55
2018-09-02T07:29:03.944Z,16.54
2018-09-02T07:31:33.835Z,16.65
2018-09-02T07:34:03.520Z,16.75
2018-09-02T07:36:33.194Z,16.85
2018-09-02T07:39:03.008Z,16.85
2018-09-02T07:41:32.680Z,16.90
2018-09-02T07:44:02.429Z,16.96
2018-09-02T07:46:32.565Z,17.09
2018-09-02T07:49:02.324Z,17.22
2018-09-02T07:51:31.997Z,17.32
2018-09-02T07:54:01.706Z,17.45
2018-09-02T07:56:31.406Z,17.57
2018-09-02T07:59:01.072Z,17.70
2018-09-02T08:01:30.765Z,17.84
2018-09-02T08:04:00.448Z,17.96
2018-09-02T08:06:30.188Z,18.00
2018-09-02T08:08:59.837Z,18.17
2018-09-02T08:11:29.524Z,18.29
2018-09-02T08:13:59.280Z,18.45
2018-09-02T08:16:28.980Z,18.55
2018-09-02T08:18:58.705Z,18.69
2018-09-02T08:21:28.432Z,18.86
2018-09-02T08:23:58.092Z,18.91
2018-09-02T08:26:27.762Z,18.98
2018-09-02T08:28:57.539Z,19.18
2018-09-02T08:31:27.286Z,19.19
2018-09-02T08:33:56.985Z,19.22
2018-09-02T08:36:26.704Z,19.28
2018-09-02T08:38:56.439Z,19.42
2018-09-02T08:41:26.227Z,19.51
2018-09-02T08:43:55.913Z,19.64
2018-09-02T08:46:25.612Z,19.75
2018-09-02T08:48:55.312Z,19.76
2018-09-02T08:51:24.956Z,19.93
2018-09-02T08:53:54.708Z,20.05
2018-09-02T08:56:24.685Z,20.08
2018-09-02T08:58:54.401Z,20.17
2018-09-02T09:01:24.084Z,20.17
2018-09-02T09:03:53.981Z,20.30
2018-09-02T09:06:24.436Z,20.33
2018-09-02T09:08:54.447Z,20.35
2018-09-02T09:11:24.308Z,20.54
2018-09-02T09:13:54.283Z,20.61
2018-09-02T09:16:24.080Z,20.68
2018-09-02T09:18:53.763Z,20.67
2018-09-02T09:21:23.507Z,20.77
2018-09-02T09:23:53.311Z,20.80
2018-09-02T09:26:23.172Z,20.87
2018-09-02T09:28:52.879Z,21.03
2018-09-02T09:31:22.616Z,20.95
2018-09-02T09:33:52.328Z,21.13
2018-09-02T09:36:22.256Z,21.11
2018-09-02T09:38:51.960Z,21.02
2018-09-02T09:41:21.656Z,21.02
2018-09-02T09:43:51.345Z,21.06
2018-09-02T09:46:21.061Z,21.16
2018-09-02T09:48:50.821Z,21.30
2018-09-02T09:51:20.581Z,21.54
2018-09-02T09:53:50.336Z,21.75
2018-09-02T09:56:20.028Z,21.59
2018-09-02T09:58:49.712Z,21.68
2018-09-02T10:01:19.412Z,21.55
2018-09-02T10:03:49.323Z,21.57
2018-09-02T10:06:18.993Z,21.31
2018-09-02T10:08:48.747Z,21.29
2018-09-02T10:11:18.450Z,21.52
2018-09-02T10:13:48.171Z,21.68
2018-09-02T10:16:17.861Z,21.57
2018-09-02T10:18:47.553Z,21.57
2018-09-02T10:21:17.268Z,21.72
2018-09-02T10:23:46.975Z,21.81
2018-09-02T10:26:16.734Z,21.78
2018-09-02T10:28:46.408Z,21.70
2018-09-02T10:31:16.139Z,21.70
2018-09-02T10:33:45.832Z,21.73
2018-09-02T10:36:15.596Z,21.69
2018-09-02T10:38:45.332Z,21.54
2018-09-02T10:41:15.324Z,21.52
2018-09-02T10:43:44.817Z,21.28
2018-09-02T10:46:14.493Z,21.23
2018-09-02T10:48:44.220Z,21.21
2018-09-02T10:51:14.072Z,21.27
2018-09-02T10:53:43.768Z,21.24
2018-09-02T10:56:13.508Z,21.22
2018-09-02T10:58:43.212Z,21.34
2018-09-02T11:01:12.918Z,21.41
2018-09-02T11:03:42.664Z,21.50
2018-09-02T11:06:12.354Z,21.57
2018-09-02T11:08:42.155Z,21.61
2018-09-02T11:11:12.160Z,21.55
2018-09-02T11:13:41.923Z,21.54
2018-09-02T11:16:11.588Z,21.47
2018-09-02T11:18:41.313Z,21.52
2018-09-02T11:21:11.085Z,21.47
2018-09-02T11:23:40.743Z,21.54
2018-09-02T11:26:10.415Z,21.49
2018-09-02T11:28:40.276Z,21.47
2018-09-02T11:31:09.989Z,21.47
2018-09-02T11:33:39.667Z,21.43
2018-09-02T11:36:09.376Z,21.39
2018-09-02T11:38:39.060Z,21.34
2018-09-02T11:41:08.793Z,21.27
2018-09-02T11:43:38.524Z,21.22
2018-09-02T11:46:08.223Z,21.15
2018-09-02T11:48:37.892Z,21.15
2018-09-02T11:51:07.656Z,21.05
2018-09-02T11:53:37.358Z,21.02
2018-09-02T11:56:07.080Z,21.01
2018-09-02T11:58:36.769Z,21.05
2018-09-02T12:01:06.592Z,21.10
2018-09-02T12:03:36.520Z,21.14
2018-09-02T12:06:06.232Z,21.15
2018-09-02T12:08:35.888Z,21.15
2018-09-02T12:11:05.802Z,21.18
2018-09-02T12:13:35.510Z,21.22
2018-09-02T12:16:05.240Z,21.29
2018-09-02T12:18:35.004Z,21.37
2018-09-02T12:21:04.686Z,21.38
2018-09-02T12:23:34.389Z,21.41
2018-09-02T12:26:04.053Z,21.38
2018-09-02T12:28:33.724Z,21.41
2018-09-02T12:31:03.462Z,21.51
2018-09-02T12:33:33.144Z,21.52
2018-09-02T12:36:02.900Z,21.51
2018-09-02T12:38:32.620Z,21.51
2018-09-02T12:41:02.270Z,21.57
2018-09-02T12:43:32.015Z,21.57
2018-09-02T12:46:01.789Z,21.59
2018-09-02T12:48:31.752Z,21.58
2018-09-02T12:51:01.512Z,21.68
2018-09-02T12:53:31.196Z,21.71
2018-09-02T12:56:00.990Z,21.82
2018-09-02T12:58:30.660Z,21.87
2018-09-02T13:01:00.366Z,21.96
2018-09-02T13:03:30.047Z,22.02
2018-09-02T13:05:59.760Z,22.06
2018-09-02T13:08:29.473Z,22.08
2018-09-02T13:10:59.172Z,22.03
2018-09-02T13:13:28.841Z,21.92
2018-09-02T13:15:58.545Z,21.83
2018-09-02T13:18:28.242Z,21.65
2018-09-02T13:20:57.917Z,21.49
2018-09-02T13:23:27.608Z,21.45
2018-09-02T13:25:57.312Z,21.37
2018-09-02T13:28:27.027Z,21.34
2018-09-02T13:30:56.748Z,21.35
2018-09-02T13:33:26.416Z,21.33
2018-09-02T13:35:56.313Z,21.37
2018-09-02T13:38:25.983Z,21.36
2018-09-02T13:40:55.644Z,21.29
2018-09-02T13:43:25.344Z,21.28
2018-09-02T13:45:55.012Z,21.25
2018-09-02T13:48:24.761Z,21.26
2018-09-02T13:50:54.741Z,21.26
2018-09-02T13:53:24.436Z,21.35
2018-09-02T13:55:54.120Z,21.37
2018-09-02T13:58:23.825Z,21.42
2018-09-02T14:00:53.552Z,21.44
2018-09-02T14:03:23.264Z,21.49
2018-09-02T14:05:52.963Z,21.41
2018-09-02T14:08:22.656Z,21.40
2018-09-02T14:10:52.412Z,21.33
2018-09-02T14:13:22.089Z,21.21
2018-09-02T14:15:51.806Z,21.21
2018-09-02T14:18:21.524Z,21.16
2018-09-02T14:20:51.297Z,21.18
2018-09-02T14:23:21.125Z,21.25
2018-09-02T14:25:50.858Z,21.29
2018-09-02T14:28:20.654Z,21.34
2018-09-02T14:30:50.580Z,21.36
2018-09-02T14:33:20.320Z,21.33
2018-09-02T14:35:50.072Z,21.34
2018-09-02T14:38:19.749Z,21.33
2018-09-02T14:40:49.464Z,21.29
2018-09-02T14:43:19.224Z,21.31
2018-09-02T14:45:49.168Z,21.25
2018-09-02T14:48:18.846Z,21.19
2018-09-02T14:50:48.590Z,21.19
2018-09-02T14:53:18.322Z,21.16
2018-09-02T14:55:48.088Z,21.13
2018-09-02T14:58:17.888Z,21.08
2018-09-02T15:00:47.624Z,21.04
2018-09-02T15:03:17.564Z,21.05
2018-09-02T15:05:47.292Z,21.09
2018-09-02T15:08:17.239Z,21.06
2018-09-02T15:10:46.958Z,21.00
2018-09-02T15:13:16.795Z,21.02
2018-09-02T15:15:46.472Z,20.96
2018-09-02T15:18:16.186Z,20.97
2018-09-02T15:20:45.881Z,20.96
2018-09-02T15:23:15.565Z,20.92
2018-09-02T15:25:45.321Z,20.89
2018-09-02T15:28:15.028Z,20.84
2018-09-02T15:30:44.742Z,20.76
2018-09-02T15:33:14.637Z,20.79
2018-09-02T15:35:44.383Z,20.80
2018-09-02T15:38:14.061Z,20.77
2018-09-02T15:40:43.727Z,20.78
2018-09-02T15:43:13.402Z,20.75
2018-09-02T15:45:43.076Z,20.75
2018-09-02T15:48:12.791Z,20.76
2018-09-02T15:50:42.472Z,20.74
2018-09-02T15:53:12.156Z,20.76
2018-09-02T15:55:41.849Z,20.72
2018-09-02T15:58:11.540Z,20.62
2018-09-02T16:00:41.368Z,20.64
2018-09-02T16:03:11.100Z,20.60
2018-09-02T16:05:40.789Z,20.59
2018-09-02T16:08:10.466Z,20.54
2018-09-02T16:10:40.176Z,20.56
2018-09-02T16:13:09.904Z,20.59
2018-09-02T16:15:39.564Z,20.58
2018-09-02T16:18:09.252Z,20.57
2018-09-02T16:20:38.908Z,20.52
2018-09-02T16:23:08.734Z,20.55
2018-09-02T16:25:38.412Z,20.54
2018-09-02T16:28:08.127Z,20.48
2018-09-02T16:30:37.816Z,20.42
2018-09-02T16:33:07.488Z,20.39
2018-09-02T16:35:37.217Z,20.39
2018-09-02T16:38:06.910Z,20.41
2018-09-02T16:40:36.596Z,20.35
2018-09-02T16:43:06.454Z,20.39
2018-09-02T16:45:36.124Z,20.44
2018-09-02T16:48:05.981Z,20.44
2018-09-02T16:50:35.697Z,20.45
2018-09-02T16:53:05.394Z,20.40
2018-09-02T16:55:35.156Z,20.40
2018-09-02T16:58:04.856Z,20.45
2018-09-02T17:00:34.596Z,20.44
2018-09-02T17:03:12.372Z,20.44
2018-09-02T17:05:42.043Z,20.40
2018-09-02T17:08:11.712Z,20.38
2018-09-02T17:10:41.564Z,20.33
2018-09-02T17:13:11.337Z,20.35
2018-09-02T17:15:41.105Z,20.26
2018-09-02T17:18:10.928Z,20.19
2018-09-02T17:20:43.253Z,20.22
2018-09-02T17:23:13.921Z,20.22
2018-09-02T17:25:44.568Z,20.23
2018-09-02T17:28:14.976Z,20.25
2018-09-02T17:30:44.707Z,20.25
2018-09-02T17:33:15.083Z,20.19
2018-09-02T17:35:44.790Z,20.20
2018-09-02T17:38:14.489Z,20.21
2018-09-02T17:40:44.285Z,20.18
2018-09-02T17:43:13.960Z,20.21
2018-09-02T17:45:43.706Z,20.16
2018-09-02T17:48:13.437Z,20.13
2018-09-02T17:50:43.094Z,20.08
2018-09-02T17:53:12.750Z,20.10
2018-09-02T17:55:42.502Z,19.99
2018-09-02T17:58:12.181Z,20.05
2018-09-02T18:00:46.277Z,20.06
2018-09-02T18:03:15.957Z,20.03
2018-09-02T18:05:45.619Z,20.05
2018-09-02T18:08:15.492Z,20.02
2018-09-02T18:10:45.552Z,19.98
2018-09-02T18:13:15.303Z,19.94
2018-09-02T18:15:45.008Z,19.89
2018-09-02T18:18:14.652Z,19.91
2018-09-02T18:20:44.368Z,19.88
2018-09-02T18:23:14.021Z,19.89
2018-09-02T18:25:43.668Z,19.85
2018-09-02T18:28:16.194Z,19.83
2018-09-02T18:30:45.862Z,19.82
2018-09-02T18:33:15.540Z,19.76
2018-09-02T18:35:45.611Z,19.75
2018-09-02T18:38:15.252Z,19.71
2018-09-02T18:40:44.906Z,19.73
2018-09-02T18:43:14.607Z,19.73
2018-09-02T18:45:44.272Z,19.73
2018-09-02T18:48:14.112Z,19.73
2018-09-02T18:50:43.841Z,19.70
2018-09-02T18:53:13.513Z,19.77
2018-09-02T18:55:43.296Z,19.74
2018-09-02T18:58:13.084Z,19.78
2018-09-02T19:00:42.892Z,19.75
2018-09-02T19:03:12.685Z,19.86
2018-09-02T19:05:42.364Z,19.83
2018-09-02T19:08:12.033Z,19.81
2018-09-02T19:10:41.745Z,19.81
2018-09-02T19:13:11.408Z,19.85
2018-09-02T19:15:41.144Z,19.83
2018-09-02T19:18:10.835Z,19.84
2018-09-02T19:20:40.556Z,19.78
2018-09-02T19:23:10.252Z,19.76
2018-09-02T19:25:39.978Z,19.70
2018-09-02T19:28:09.672Z,19.72
2018-09-02T19:30:39.373Z,19.76
2018-09-02T19:33:09.096Z,19.69
2018-09-02T19:35:38.854Z,19.63
2018-09-02T19:38:08.552Z,19.67
2018-09-02T19:40:38.269Z,19.67
2018-09-02T19:43:07.921Z,19.66
2018-09-02T19:45:37.602Z,19.71
2018-09-02T19:48:07.259Z,19.71
2018-09-02T19:50:36.957Z,19.69
2018-09-02T19:53:06.617Z,19.65
2018-09-02T19:55:36.316Z,19.60
2018-09-02T19:58:06.016Z,19.69
2018-09-02T20:00:35.676Z,19.70
2018-09-02T20:03:05.402Z,19.67
2018-09-02T20:05:35.124Z,19.71
2018-09-02T20:08:04.798Z,19.69
2018-09-02T20:10:34.463Z,19.61
2018-09-02T20:13:04.123Z,19.62
2018-09-02T20:15:34.031Z,19.62
2018-09-02T20:18:03.724Z,19.53
2018-09-02T20:20:33.468Z,19.57
2018-09-02T20:23:03.145Z,19.55
2018-09-02T20:25:32.805Z,19.51
2018-09-02T20:28:02.742Z,19.59
2018-09-02T20:30:32.439Z,19.55
2018-09-02T20:33:02.264Z,19.52
2018-09-02T20:35:31.939Z,19.51
2018-09-02T20:38:01.638Z,19.49
2018-09-02T20:40:31.295Z,19.55
2018-09-02T20:43:01.010Z,19.46
2018-09-02T20:45:30.738Z,19.49
2018-09-02T20:48:00.548Z,19.45
2018-09-02T20:50:30.227Z,19.43
2018-09-02T20:52:59.932Z,19.38
2018-09-02T20:55:29.604Z,19.39
2018-09-02T20:57:59.320Z,19.42
2018-09-02T21:00:29.009Z,19.37
2018-09-02T21:02:58.691Z,19.29
2018-09-02T21:05:28.472Z,19.21
2018-09-02T21:07:58.170Z,19.10
2018-09-02T21:10:27.868Z,19.02
2018-09-02T21:12:57.540Z,19.03
2018-09-02T21:15:27.258Z,18.86
2018-09-02T21:17:57.408Z,18.83
2018-09-02T21:20:27.085Z,18.85
2018-09-02T21:22:56.920Z,18.90
2018-09-02T21:25:26.620Z,18.78
2018-09-02T21:27:56.393Z,18.81
2018-09-02T21:30:26.920Z,18.68
2018-09-02T21:32:56.842Z,18.68
2018-09-02T21:35:26.570Z,18.73
2018-09-02T21:37:56.348Z,18.70
2018-09-02T21:40:26.003Z,18.69
2018-09-02T21:42:55.760Z,18.82
2018-09-02T21:45:25.455Z,18.78
2018-09-02T21:47:55.222Z,18.81
2018-09-02T21:50:24.976Z,18.79
2018-09-02T21:52:54.720Z,18.81
2018-09-02T21:55:24.433Z,18.82
2018-09-02T21:57:54.109Z,18.80
2018-09-02T22:00:24.049Z,18.79
2018-09-02T22:02:53.796Z,18.74
2018-09-02T22:05:23.528Z,18.72
2018-09-02T22:07:53.337Z,18.71
2018-09-02T22:10:23.061Z,18.66
2018-09-02T22:12:52.772Z,18.55
2018-09-02T22:15:22.452Z,18.58
2018-09-02T22:17:52.164Z,18.61
2018-09-02T22:20:21.836Z,18.63
2018-09-02T22:22:51.515Z,18.58
2018-09-02T22:25:21.224Z,18.55
2018-09-02T22:27:51.039Z,18.52
2018-09-02T22:30:20.737Z,18.52
2018-09-02T22:32:50.509Z,18.52
2018-09-02T22:35:20.228Z,18.55
2018-09-02T22:37:49.947Z,18.45
2018-09-02T22:40:19.666Z,18.34
2018-09-02T22:42:49.378Z,18.34
2018-09-02T22:45:19.064Z,18.32
2018-09-02T22:47:48.853Z,18.35
2018-09-02T22:50:18.714Z,18.33
2018-09-02T22:52:48.689Z,18.26
2018-09-02T22:55:18.423Z,18.23
2018-09-02T22:57:48.169Z,18.20
2018-09-02T23:00:17.907Z,18.13
2018-09-02T23:02:47.588Z,18.11
2018-09-02T23:05:17.305Z,18.12
2018-09-02T23:07:46.976Z,18.04
2018-09-02T23:10:17.068Z,17.99
2018-09-02T23:12:46.744Z,17.95
2018-09-02T23:15:16.478Z,17.95
2018-09-02T23:17:46.176Z,18.04
2018-09-02T23:20:15.945Z,18.05
2018-09-02T23:22:45.729Z,18.00
2018-09-02T23:25:15.482Z,17.85
2018-09-02T23:27:45.196Z,17.79
2018-09-02T23:30:14.881Z,17.77
2018-09-02T23:32:44.561Z,17.86
2018-09-02T23:35:14.248Z,17.71
2018-09-02T23:37:43.922Z,17.66
2018-09-02T23:40:13.662Z,17.61
2018-09-02T23:42:43.332Z,17.67
2018-09-02T23:45:13.068Z,17.65
2018-09-02T23:47:42.749Z,17.71
2018-09-02T23:50:12.406Z,17.67
2018-09-02T23:52:42.102Z,17.61
2018-09-02T23:55:11.779Z,17.45
2018-09-02T23:57:41.480Z,17.48
